Jump to content


AMERICAN AIRLINES FLIGHT AA586 FLOWN ON 05-30-2017 BY CAPTAIN SUKDEO LALLMAN

Pilot StatsCaptain Sukdeo Lallman (LDP511) • 248.1 total hours • 114 total flights [View Logbook]
FLIGHT DETAILS
StatusReceived and approved on 2017-08-20 at 17:08:34
Origin AirportSalt Lake City Intl (KSLC) • Salt Lake City, Utah, United States (4,226 feet MSL)
Filed Flight PlanFLIGHT PLANNER OFFLINE
Destination AirportSan Francisco Intl (KSFO) • San Francisco, California, United States (13 feet MSL)
Alternate AirportNone Filed
AirlineAmerican Airlines
AircraftBoeing 777-200 (772 / B777-200)
FS Aircraft UsedPMDG 777-223LR American Airlines (Fictional)
Cruising AltitudeFL350
Distance Flown520 nautical miles
Passengers Onboard105 passengers (34.43% full)
DEPARTURE DETAILS
Time Out14:16:30
Taxi Data503,632 lbs total with 134,308 lbs of fuel onboard
Takeoff Data14:25:44 (9 minutes after leaving gate/ramp) • 501,884 lbs total • 8° pitch at 159 knots
Departure METARKSLC 201854Z 20006KT 10SM FEW100 FEW160 33/03 A3002 RMK AO2 SLP102 T03280028
ARRIVAL DETAILS
Landing Data14:49:11 • 480,360 lbs total • 3° pitch doing 144 knots at a rate of -615.93 feet/minute with 110,124 lbs of fuel onboard
Time In14:54:02 (5 minutes after landing)
Ramp Weight479,449 lbs total
Total Fuel Used24,184 lbs
Total Block Time01:38:48 (1.6 hours) while 14 minutes were spent on the ground
Arrival METARKSFO 202056Z 24013KT 10SM FEW015 21/13 A2989 RMK AO2 SLP121 T02060133 58003 $
MISCELLANEOUS DETAILS
LiveDISPATCH Version4.8.3.1
FS Version
FSUIPC Version5.10
OS VersionWindows 7 32-bit
Screen Resolution1920 x 1080
Pilot's CommentsNo Comments Reported
FLIGHT MAP